Time;durP1;ratioP1;P1;durP2;ratioP2;P2;SDS_P1;SDS_P2;PMS_P1;PMS_P2;Temp;Humidity;BMP_temperature;BMP_pressure;BME280_temperature;BME280_humidity;BME280_pressure;Samples;Min_cycle;Max_cycle;Signal;HPM_P1;HPM_P2
2020/12/13 00:02:33;;;;;;;26.70;24.00;;;;;;;4.65;68.18;99057.09;10458252;28;20079;-69
2020/12/13 00:07:35;;;;;;;28.23;23.85;;;;;;;4.69;67.78;99056.16;10458765;28;20052;-67
2020/12/13 00:12:36;;;;;;;29.75;24.58;;;;;;;4.64;67.99;99064.94;10459223;28;20080;-69
2020/12/13 00:17:38;;;;;;;26.17;23.33;;;;;;;4.54;67.86;99059.94;10459373;28;20129;-68
2020/12/13 00:22:39;;;;;;;26.60;23.55;;;;;;;4.70;67.56;99065.66;10467258;28;20046;-67
2020/12/13 00:27:40;;;;;;;23.55;21.38;;;;;;;4.58;68.02;99067.69;10467271;28;20045;-68
2020/12/13 00:32:42;;;;;;;25.20;22.80;;;;;;;4.59;67.64;99070.25;10465842;28;20540;-68
2020/12/13 00:37:43;;;;;;;25.75;22.95;;;;;;;4.57;67.96;99081.59;10508240;22;20045;-69
2020/12/13 00:42:44;;;;;;;30.60;24.35;;;;;;;4.65;67.89;99083.13;10507045;28;20052;-69
2020/12/13 00:47:45;;;;;;;27.80;24.83;;;;;;;4.72;68.33;99099.47;10505625;28;20032;-68
2020/12/13 00:52:47;;;;;;;28.80;25.90;;;;;;;4.41;69.53;99097.53;10489124;28;20043;-68
2020/12/13 00:57:48;;;;;;;28.52;25.50;;;;;;;4.39;69.93;99098.47;10487109;28;20044;-69
2020/12/13 01:02:49;;;;;;;29.98;25.83;;;;;;;4.66;69.54;99097.84;10487326;28;20057;-68
2020/12/13 01:07:51;;;;;;;28.92;24.73;;;;;;;4.73;69.49;99098.56;10505212;28;20109;-68
2020/12/13 01:12:52;;;;;;;30.42;26.08;;;;;;;4.77;69.35;99113.22;10505841;28;20554;-67
2020/12/13 01:17:54;;;;;;;30.50;25.23;;;;;;;4.70;69.73;99111.66;10504650;28;20043;-69
2020/12/13 01:22:55;;;;;;;28.02;25.13;;;;;;;4.64;70.23;99114.38;10504931;28;20094;-68
2020/12/13 01:27:56;;;;;;;28.65;25.75;;;;;;;4.64;70.33;99114.38;10504111;28;20563;-68
2020/12/13 01:32:57;;;;;;;27.60;24.95;;;;;;;4.50;70.67;99120.75;10486212;28;20052;-68
2020/12/13 01:37:58;;;;;;;28.08;25.33;;;;;;;4.57;70.46;99134.50;10503316;28;20070;-68
2020/12/13 01:43:00;;;;;;;28.38;25.13;;;;;;;4.51;70.63;99129.41;10503962;28;20044;-68
2020/12/13 01:48:01;;;;;;;26.23;23.58;;;;;;;4.58;70.38;99136.22;10503351;28;20044;-69
2020/12/13 01:53:18;;;;;;;28.02;24.60;;;;;;;4.52;70.57;99139.81;10502984;28;20406;-70
2020/12/13 01:58:26;;;;;;;26.35;23.92;;;;;;;4.50;70.74;99143.31;10503977;28;20041;-68
2020/12/13 02:03:37;;;;;;;26.33;23.13;;;;;;;4.63;70.82;99136.09;10502620;28;20406;-69
2020/12/13 02:08:39;;;;;;;27.10;24.40;;;;;;;4.60;70.70;99142.22;10502952;28;20044;-68
2020/12/13 02:13:41;;;;;;;26.17;23.15;;;;;;;4.34;71.27;99155.81;10502530;28;20041;-69
2020/12/13 02:18:42;;;;;;;26.92;24.23;;;;;;;4.45;71.35;99160.78;10502714;28;20045;-68
2020/12/13 02:23:45;;;;;;;27.42;24.40;;;;;;;4.51;71.34;99155.44;10501652;28;20171;-69
2020/12/13 02:28:46;;;;;;;31.75;25.63;;;;;;;4.39;71.39;99155.72;10484304;28;20527;-69
2020/12/13 02:33:47;;;;;;;27.75;24.88;;;;;;;4.25;71.62;99163.78;10501407;28;20041;-70
2020/12/13 02:38:48;;;;;;;25.73;23.40;;;;;;;4.28;71.93;99174.13;10501995;28;20111;-69
2020/12/13 02:43:50;;;;;;;31.88;27.13;;;;;;;4.21;72.39;99172.56;10501283;28;20040;-69
2020/12/13 02:48:51;;;;;;;32.17;28.75;;;;;;;4.04;72.67;99170.28;10500645;28;20040;-68
2020/12/13 02:53:52;;;;;;;34.42;28.80;;;;;;;4.27;72.11;99182.84;10481611;28;20048;-68
2020/12/13 02:58:54;;;;;;;32.58;28.48;;;;;;;4.09;72.61;99175.38;10499719;28;20502;-67
2020/12/13 03:03:55;;;;;;;37.35;30.35;;;;;;;4.04;72.70;99183.28;10500084;28;20051;-68
2020/12/13 03:08:56;;;;;;;42.22;32.17;;;;;;;4.17;72.92;99181.31;10500838;28;20040;-68
2020/12/13 03:13:57;;;;;;;41.35;32.63;;;;;;;4.16;72.88;99192.56;10480957;28;20052;-68
2020/12/13 03:18:59;;;;;;;48.15;33.65;;;;;;;4.29;72.31;99202.75;10498524;28;20146;-68
2020/12/13 03:24:01;;;;;;;46.03;33.17;;;;;;;4.41;72.23;99199.00;10499595;28;20059;-68
2020/12/13 03:29:02;;;;;;;48.97;34.22;;;;;;;4.52;71.53;99207.47;10481837;28;20428;-68
2020/12/13 03:34:03;;;;;;;43.45;32.53;;;;;;;4.28;72.31;99211.41;10498493;28;20068;-68
2020/12/13 03:39:04;;;;;;;49.90;35.63;;;;;;;4.33;72.32;99211.31;10498948;28;20135;-68
2020/12/13 03:44:06;;;;;;;49.70;34.00;;;;;;;4.19;72.41;99219.38;10498468;28;20040;-68
2020/12/13 03:49:07;;;;;;;51.67;35.38;;;;;;;4.07;73.21;99224.81;10497592;28;20041;-68
2020/12/13 03:54:10;;;;;;;51.00;34.03;;;;;;;4.12;72.94;99222.13;10487816;28;20057;-68
2020/12/13 03:59:11;;;;;;;51.17;35.45;;;;;;;4.24;72.66;99220.16;10493394;28;20493;-68
2020/12/13 04:04:12;;;;;;;45.92;34.53;;;;;;;4.27;72.58;99233.13;10513044;28;20075;-69
2020/12/13 04:09:13;;;;;;;48.33;34.55;;;;;;;4.36;72.03;99237.28;10512425;28;20045;-68
2020/12/13 04:14:14;;;;;;;46.13;34.83;;;;;;;4.37;72.02;99241.59;10511969;28;20098;-69
2020/12/13 04:19:16;;;;;;;46.55;34.47;;;;;;;4.38;71.94;99245.91;10511588;28;20036;-68
2020/12/13 04:24:17;;;;;;;50.08;35.63;;;;;;;4.37;71.87;99246.78;10512191;28;20040;-67
2020/12/13 04:29:18;;;;;;;49.22;33.38;;;;;;;4.34;72.09;99246.88;10494220;28;20052;-68
2020/12/13 04:34:20;;;;;;;46.33;34.03;;;;;;;4.33;72.10;99255.53;10511774;28;20044;-68
2020/12/13 04:39:21;;;;;;;50.50;33.95;;;;;;;4.35;71.98;99253.78;10511423;28;20075;-68
2020/12/13 04:44:23;;;;;;;45.83;32.45;;;;;;;4.30;72.00;99261.69;10511052;28;20054;-68
2020/12/13 04:49:26;;;;;;;41.80;33.58;;;;;;;4.39;71.76;99265.84;10512613;28;20044;-69
2020/12/13 04:54:28;;;;;;;45.88;33.80;;;;;;;4.46;71.54;99272.63;10493069;28;20048;-68
2020/12/13 04:59:30;;;;;;;47.88;34.90;;;;;;;4.54;71.11;99270.75;10510962;28;20094;-68
2020/12/13 05:04:32;;;;;;;44.80;33.40;;;;;;;4.59;71.08;99275.88;10507336;28;20048;-68
2020/12/13 05:09:34;;;;;;;46.75;34.92;;;;;;;4.37;71.81;99274.56;10504480;28;20044;-70
2020/12/13 05:14:35;;;;;;;45.65;33.85;;;;;;;4.36;71.88;99271.09;10504747;28;20355;-69
2020/12/13 05:19:38;;;;;;;48.78;33.92;;;;;;;4.52;71.69;99277.75;10486569;28;20036;-68
2020/12/13 05:24:40;;;;;;;42.65;32.55;;;;;;;4.61;71.18;99281.06;10486393;28;20075;-69
2020/12/13 05:29:45;;;;;;;42.38;31.52;;;;;;;4.51;71.40;99290.75;10504996;28;20059;-69
2020/12/13 05:34:49;;;;;;;40.40;31.77;;;;;;;4.36;71.97;99289.31;10485917;28;20105;-70
2020/12/13 05:39:52;;;;;;;42.22;32.50;;;;;;;4.39;71.61;99284.06;10504516;28;20040;-68
2020/12/13 05:55:34;;;;;;;45.22;31.33;;;;;;;4.47;71.57;99295.19;10503716;28;20076;-68
2020/12/13 06:00:35;;;;;;;43.15;31.58;;;;;;;4.45;71.54;99296.97;10503441;28;20041;-69
2020/12/13 06:05:42;;;;;;;38.55;31.90;;;;;;;4.28;72.04;99299.88;10484196;28;20052;-68
2020/12/13 06:10:44;;;;;;;44.70;32.85;;;;;;;4.32;71.20;99305.03;10502612;28;20423;-69
2020/12/13 06:15:46;;;;;;;35.88;30.15;;;;;;;4.35;71.33;99315.38;10484785;28;20068;-69
2020/12/13 06:20:49;;;;;;;40.53;30.95;;;;;;;4.25;71.53;99325.06;10502468;28;20045;-68
2020/12/13 06:25:51;;;;;;;34.15;29.90;;;;;;;4.37;71.39;99324.84;10501589;28;20094;-68
2020/12/13 06:30:52;;;;;;;35.80;30.45;;;;;;;4.52;70.94;99324.59;10500529;28;20052;-68
2020/12/13 06:35:53;;;;;;;42.53;31.23;;;;;;;4.62;70.49;99335.69;10503228;22;20059;-64
2020/12/13 06:41:05;;;;;;;34.97;28.63;;;;;;;4.57;70.70;99339.28;10541291;28;20094;-64
2020/12/13 06:46:15;;;;;;;31.42;27.77;;;;;;;4.49;70.91;99345.47;10541481;28;20561;-65
2020/12/13 06:51:26;;;;;;;39.53;29.98;;;;;;;4.56;70.76;99356.63;10541387;28;20429;-65
2020/12/13 06:56:28;;;;;;;38.03;28.48;;;;;;;4.66;70.50;99365.13;10540689;28;20097;-64
2020/12/13 07:01:32;;;;;;;37.53;28.80;;;;;;;4.69;70.19;99378.06;10540965;28;20044;-65
2020/12/13 07:06:44;;;;;;;39.40;28.92;;;;;;;4.64;70.40;99385.97;10541509;28;20048;-64
2020/12/13 07:11:46;;;;;;;38.30;28.90;;;;;;;4.85;69.75;99376.03;10521920;28;20071;-65
2020/12/13 07:16:57;;;;;;;39.85;30.17;;;;;;;4.79;69.54;99387.44;10539436;28;20056;-65
2020/12/13 07:22:18;;;;;;;33.95;28.85;;;;;;;4.82;69.95;99395.19;10541012;28;20114;-65
2020/12/13 07:27:22;;;;;;;33.22;28.83;;;;;;;4.78;69.74;99409.13;10540944;28;20064;-64
2020/12/13 07:32:23;;;;;;;34.42;28.70;;;;;;;4.90;69.38;99400.25;10540544;28;20405;-64
2020/12/13 07:37:26;;;;;;;38.20;29.95;;;;;;;4.99;69.02;99411.34;10540294;28;20490;-64
2020/12/13 07:42:28;;;;;;;34.67;28.10;;;;;;;4.78;69.72;99417.84;10540437;28;20040;-65
2020/12/13 07:47:29;;;;;;;34.88;29.20;;;;;;;4.75;70.22;99417.03;10540521;28;20455;-63
2020/12/13 07:52:30;;;;;;;33.38;29.35;;;;;;;4.94;69.47;99423.59;10541329;28;20051;-65
2020/12/13 07:57:32;;;;;;;32.60;28.40;;;;;;;4.85;69.98;99428.97;10531591;28;20036;-64
2020/12/13 08:02:34;;;;;;;39.03;29.92;;;;;;;4.84;70.23;99429.03;10541723;28;20048;-64
2020/12/13 08:07:35;;;;;;;34.22;28.60;;;;;;;4.95;69.82;99432.28;10540648;28;20089;-65
2020/12/13 08:12:39;;;;;;;32.00;27.75;;;;;;;5.15;69.12;99439.72;10542678;28;20048;-63
2020/12/13 08:17:43;;;;;;;31.27;27.00;;;;;;;5.07;69.34;99448.53;10541755;28;20054;-64
2020/12/13 08:22:50;;;;;;;33.60;28.73;;;;;;;5.10;69.60;99442.41;10541351;28;20076;-65
2020/12/13 08:27:55;;;;;;;35.05;28.58;;;;;;;5.30;68.68;99460.25;10524124;28;20409;-64
2020/12/13 08:32:58;;;;;;;30.20;26.90;;;;;;;5.19;69.40;99454.41;10541752;28;20051;-64
2020/12/13 08:38:02;;;;;;;30.10;26.33;;;;;;;5.04;70.16;99453.78;10541652;28;20040;-64
2020/12/13 08:43:04;;;;;;;29.35;26.17;;;;;;;5.16;69.92;99470.09;10550203;28;20047;-64
2020/12/13 08:48:06;;;;;;;28.63;25.80;;;;;;;5.13;70.37;99468.38;10549959;28;20104;-65
2020/12/13 08:53:23;;;;;;;28.90;25.77;;;;;;;5.22;69.77;99481.28;10548863;28;20117;-64
2020/12/13 08:58:25;;;;;;;30.60;27.35;;;;;;;5.30;69.91;99487.16;10549725;28;20089;-64
2020/12/13 09:03:29;;;;;;;30.10;26.70;;;;;;;5.41;69.81;99486.13;10546415;28;20052;-65
2020/12/13 09:08:30;;;;;;;28.48;25.55;;;;;;;5.57;69.18;99497.94;10527425;28;20067;-63
2020/12/13 09:13:34;;;;;;;29.80;26.75;;;;;;;5.53;69.63;99505.00;10545447;28;20094;-64
2020/12/13 09:18:38;;;;;;;31.97;25.13;;;;;;;5.48;69.74;99504.19;10545057;28;20101;-63
2020/12/13 09:23:39;;;;;;;28.85;25.92;;;;;;;5.59;69.81;99505.75;10526924;28;20044;-64
2020/12/13 09:28:40;;;;;;;28.42;25.33;;;;;;;5.90;68.85;99512.06;10543930;28;20047;-65
2020/12/13 09:33:41;;;;;;;31.02;27.27;;;;;;;5.86;69.25;99515.63;10544336;28;20036;-64
2020/12/13 09:38:42;;;;;;;32.05;27.80;;;;;;;6.11;68.13;99518.59;10525420;28;20070;-64
2020/12/13 09:43:44;;;;;;;29.33;26.23;;;;;;;6.20;67.45;99518.41;10543312;28;20047;-64
2020/12/13 09:48:45;;;;;;;27.50;24.90;;;;;;;6.16;67.41;99534.16;10543928;28;20118;-63
2020/12/13 09:53:46;;;;;;;30.92;26.02;;;;;;;6.03;67.30;99529.19;10542498;28;20080;-65
2020/12/13 09:58:48;;;;;;;28.63;25.70;;;;;;;6.24;66.45;99520.06;10543397;28;20032;-64
2020/12/13 10:03:52;;;;;;;32.40;26.10;;;;;;;6.22;66.40;99519.22;10524975;28;20052;-63
2020/12/13 10:13:58;;;;;;;29.55;26.55;;;;;;;5.93;67.75;99521.59;10542178;28;20048;-63
2020/12/13 10:19:00;;;;;;;29.33;26.40;;;;;;;6.01;67.30;99517.06;10542368;28;20086;-64
2020/12/13 10:24:03;;;;;;;30.48;27.20;;;;;;;6.23;67.36;99509.63;10542126;28;20138;-63
2020/12/13 10:29:06;;;;;;;29.58;26.08;;;;;;;6.30;67.04;99509.47;10542063;28;20047;-64
2020/12/13 10:34:10;;;;;;;30.30;25.95;;;;;;;6.51;66.10;99505.50;10544399;28;20051;-65
2020/12/13 10:39:12;;;;;;;30.05;26.33;;;;;;;6.42;66.33;99513.56;10522972;28;20076;-64
2020/12/13 10:44:19;;;;;;;28.75;25.83;;;;;;;6.42;66.51;99516.16;10541224;28;20085;-64
2020/12/13 10:49:20;;;;;;;29.20;25.38;;;;;;;6.41;66.32;99514.44;10541065;28;20048;-64
2020/12/13 10:54:24;;;;;;;26.40;24.00;;;;;;;6.36;66.78;99513.69;10541518;28;20044;-65
2020/12/13 10:59:26;;;;;;;27.80;25.10;;;;;;;6.61;65.85;99510.50;10540796;28;20040;-64
2020/12/13 11:04:28;;;;;;;25.83;23.60;;;;;;;6.55;66.05;99512.38;10538296;28;20072;-64
2020/12/13 11:09:29;;;;;;;25.85;23.60;;;;;;;6.42;66.55;99515.28;10538360;28;20036;-64
2020/12/13 11:14:31;;;;;;;27.52;25.10;;;;;;;6.65;66.28;99517.38;10538758;28;20048;-64
2020/12/13 11:19:32;;;;;;;15.38;14.27;;;;;;;6.69;68.31;99519.03;10539890;28;20040;-64
2020/12/13 11:24:33;;;;;;;15.88;14.68;;;;;;;6.75;68.52;99519.72;10545380;28;20374;-65
2020/12/13 11:29:36;;;;;;;17.13;15.82;;;;;;;6.85;68.46;99522.94;10541187;28;20544;-65
2020/12/13 11:34:38;;;;;;;16.83;15.52;;;;;;;6.93;68.30;99526.25;10539252;28;20059;-64
2020/12/13 11:39:39;;;;;;;16.77;15.57;;;;;;;6.96;68.43;99530.53;10539017;28;20512;-64
2020/12/13 11:44:40;;;;;;;19.40;17.95;;;;;;;7.17;67.63;99531.72;10539344;28;20435;-63
2020/12/13 11:49:42;;;;;;;19.45;17.88;;;;;;;7.22;67.56;99533.34;10539845;28;20043;-65
2020/12/13 11:54:44;;;;;;;19.60;18.15;;;;;;;7.07;67.66;99537.19;10540032;28;20554;-64
2020/12/13 11:59:45;;;;;;;21.65;19.95;;;;;;;7.02;68.34;99546.06;10538768;28;20066;-64
2020/12/13 12:04:47;;;;;;;19.92;18.20;;;;;;;7.06;67.95;99539.84;10538753;28;20094;-63
2020/12/13 12:09:48;;;;;;;18.67;17.08;;;;;;;7.15;67.53;99546.59;10538525;28;20078;-64
2020/12/13 12:14:49;;;;;;;19.10;17.70;;;;;;;7.25;67.55;99553.31;10543453;28;20089;-65
2020/12/13 12:19:52;;;;;;;20.13;18.50;;;;;;;7.01;68.13;99547.81;10547470;28;20036;-65
2020/12/13 12:24:53;;;;;;;19.80;18.13;;;;;;;7.04;68.09;99552.97;10547505;28;20057;-64
2020/12/13 12:29:54;;;;;;;21.45;19.75;;;;;;;6.94;68.32;99546.25;10529375;28;20162;-65
2020/12/13 12:34:55;;;;;;;20.15;18.67;;;;;;;7.10;68.07;99556.31;10547322;28;20115;-66
2020/12/13 12:39:57;;;;;;;20.30;18.50;;;;;;;7.02;68.63;99561.75;10565571;22;20066;-70
2020/12/13 12:44:58;;;;;;;19.98;18.38;;;;;;;6.98;68.69;99555.72;10553164;28;20070;-70
2020/12/13 12:50:00;;;;;;;21.70;19.75;;;;;;;7.04;68.28;99559.97;10549959;28;20035;-70
2020/12/13 12:55:02;;;;;;;28.40;24.58;;;;;;;7.08;66.93;99559.84;10550098;28;20079;-71
2020/12/13 13:05:12;;;;;;;26.33;24.02;;;;;;;7.02;66.08;99573.03;10550001;28;20075;-70
2020/12/13 13:10:18;;;;;;;35.47;27.33;;;;;;;6.96;66.19;99570.59;10550198;28;20036;-70
2020/12/13 13:16:02;;;;;;;29.40;25.13;;;;;;;6.85;66.45;99574.34;10535206;28;20428;-71
2020/12/13 13:20:44;;;;;;;33.97;30.40;;;;;;;6.95;66.40;99583.66;10539793;28;20455;-70
2020/12/13 13:25:46;;;;;;;33.17;29.75;;;;;;;7.01;66.18;99581.78;10529765;28;20501;-70
2020/12/13 13:30:47;;;;;;;32.83;29.42;;;;;;;6.76;66.88;99589.34;10548279;28;20477;-70
2020/12/13 13:35:49;;;;;;;30.75;26.52;;;;;;;6.79;66.64;99588.44;10531245;28;20110;-70
2020/12/13 13:40:50;;;;;;;29.10;25.48;;;;;;;6.63;67.01;99590.53;10529010;28;20331;-70
2020/12/13 13:51:11;;;;;;;30.27;27.00;;;;;;;6.76;66.78;99602.41;10528803;28;20062;-70
2020/12/13 13:56:15;;;;;;;31.73;27.70;;;;;;;6.63;67.25;99614.03;10546302;28;20036;-70
2020/12/13 14:01:17;;;;;;;31.83;26.63;;;;;;;6.69;67.04;99615.66;10527141;28;20043;-69
2020/12/13 14:11:42;;;;;;;31.02;26.80;;;;;;;6.92;66.32;99623.81;10546495;28;20044;-70
2020/12/13 14:16:45;;;;;;;28.60;25.88;;;;;;;6.61;67.45;99625.41;10544431;28;20046;-70
2020/12/13 14:21:46;;;;;;;30.05;26.55;;;;;;;6.48;67.74;99630.03;10544231;28;20135;-70
2020/12/13 14:26:48;;;;;;;37.53;29.25;;;;;;;6.66;67.63;99650.53;10544946;28;20550;-69
2020/12/13 14:31:52;;;;;;;38.83;29.30;;;;;;;6.60;67.51;99649.78;10544259;28;20099;-70
2020/12/13 14:36:54;;;;;;;37.28;28.02;;;;;;;6.53;67.97;99646.47;10544278;28;20481;-70
2020/12/13 14:41:56;;;;;;;32.97;27.17;;;;;;;6.54;68.20;99656.00;10544957;28;20128;-70
2020/12/13 14:46:57;;;;;;;36.22;30.27;;;;;;;6.38;68.65;99658.09;10543861;28;20052;-70
2020/12/13 14:51:59;;;;;;;41.35;30.80;;;;;;;6.42;68.42;99662.38;10544159;28;20044;-70
2020/12/13 14:57:00;;;;;;;41.05;29.58;;;;;;;6.54;68.32;99662.09;10544192;28;20477;-70
2020/12/13 15:02:02;;;;;;;36.65;29.38;;;;;;;6.63;68.14;99663.63;10525793;28;20093;-70
2020/12/13 15:07:03;;;;;;;37.80;29.25;;;;;;;6.59;68.27;99667.22;10543553;28;20067;-69
2020/12/13 15:12:05;;;;;;;40.22;29.02;;;;;;;6.58;68.50;99674.19;10545912;28;20052;-69
2020/12/13 15:17:25;;;;;;;36.78;28.77;;;;;;;6.50;68.91;99676.09;10525741;28;20134;-71
2020/12/13 15:22:26;;;;;;;43.80;30.85;;;;;;;6.71;68.26;99676.53;10544654;28;20119;-72
2020/12/13 15:27:28;;;;;;;45.55;32.30;;;;;;;6.95;67.04;99677.75;10542716;28;20078;-70
2020/12/13 15:32:29;;;;;;;42.50;30.88;;;;;;;6.80;67.51;99682.41;10543287;28;20393;-70
2020/12/13 15:37:32;;;;;;;40.65;30.35;;;;;;;6.63;68.07;99687.16;10542542;28;20048;-70
2020/12/13 15:42:36;;;;;;;48.92;31.77;;;;;;;6.42;68.86;99692.81;10544440;28;20564;-71
2020/12/13 15:47:41;;;;;;;45.20;31.98;;;;;;;6.29;69.27;99697.44;10526868;28;20043;-70
2020/12/13 15:52:42;;;;;;;45.10;33.40;;;;;;;6.49;68.94;99702.25;10527122;28;20157;-71
2020/12/13 15:57:44;;;;;;;47.22;33.05;;;;;;;6.42;69.10;99704.16;10544588;28;20078;-71
2020/12/13 16:02:45;;;;;;;48.13;32.42;;;;;;;6.66;68.73;99707.13;10526586;28;20044;-71
2020/12/13 16:07:52;;;;;;;46.75;33.13;;;;;;;6.59;68.92;99716.84;10544715;28;20059;-71
2020/12/13 16:13:01;;;;;;;;;;;;;;;6.50;69.22;99722.25;10544551;28;20044;-71
2020/12/13 16:18:07;;;;;;;47.28;31.77;;;;;;;6.44;69.65;99725.00;10544071;28;20308;-71
2020/12/13 16:23:08;;;;;;;49.70;33.15;;;;;;;6.53;69.36;99722.19;10544053;28;20044;-71
2020/12/13 16:28:11;;;;;;;45.35;32.95;;;;;;;6.36;70.10;99732.09;10542359;28;20097;-70
2020/12/13 16:33:13;;;;;;;57.67;36.33;;;;;;;6.55;69.77;99739.56;10524759;28;20044;-70
2020/12/13 16:38:21;;;;;;;55.20;35.05;;;;;;;6.60;69.51;99733.34;10543697;28;20072;-71
2020/12/13 16:43:34;;;;;;;76.18;41.42;;;;;;;6.43;70.05;99734.56;10525341;28;20048;-71
2020/12/13 16:59:03;;;;;;;53.40;33.60;;;;;;;6.61;69.53;99750.78;10545015;28;20130;-70
2020/12/13 17:04:04;;;;;;;42.28;31.65;;;;;;;6.44;69.71;99746.72;10550594;28;20048;-70
2020/12/13 17:09:07;;;;;;;52.90;33.63;;;;;;;6.71;68.75;99747.06;10550193;28;20067;-71
2020/12/13 17:14:36;;;;;;;54.45;34.33;;;;;;;6.71;68.38;99749.69;10531705;28;20089;-72
2020/12/13 17:19:38;;;;;;;52.90;33.28;;;;;;;6.65;68.58;99760.25;10550870;28;20039;-69
2020/12/13 17:24:57;;;;;;;59.90;35.17;;;;;;;6.61;68.72;99756.84;10548541;28;20390;-71
2020/12/13 17:30:01;;;;;;;48.20;33.53;;;;;;;6.40;69.35;99755.50;10548847;28;20559;-71
2020/12/13 17:35:02;;;;;;;54.75;35.80;;;;;;;6.16;70.26;99769.91;10548136;28;20058;-70
2020/12/13 17:40:03;;;;;;;55.55;35.63;;;;;;;6.05;70.65;99775.28;10548284;28;20129;-71
2020/12/13 17:45:06;;;;;;;53.88;34.28;;;;;;;6.15;70.21;99781.19;10529827;28;20055;-70
2020/12/13 17:55:32;;;;;;;52.65;34.25;;;;;;;6.58;69.01;99786.47;10546819;28;20068;-70
2020/12/13 18:00:34;;;;;;;56.35;36.45;;;;;;;6.23;69.93;99788.91;10545863;28;20558;-69
2020/12/13 18:05:35;;;;;;;62.47;35.67;;;;;;;6.25;70.08;99788.00;10546854;28;20046;-70
2020/12/13 18:10:38;;;;;;;49.40;34.30;;;;;;;6.42;69.51;99790.31;10544133;28;20070;-70
2020/12/13 18:15:39;;;;;;;48.53;32.03;;;;;;;6.18;70.09;99803.78;10545263;28;20047;-70
2020/12/13 18:20:40;;;;;;;61.35;35.30;;;;;;;6.11;70.43;99802.16;10545692;28;20047;-70
2020/12/13 18:25:43;;;;;;;47.38;33.20;;;;;;;6.14;70.36;99802.97;10546009;28;20562;-70
2020/12/13 18:30:45;;;;;;;55.50;35.85;;;;;;;6.36;69.58;99805.19;10547371;28;20446;-70
2020/12/13 18:35:47;;;;;;;58.22;34.75;;;;;;;6.27;69.58;99808.84;10529599;28;20052;-71
2020/12/13 18:40:50;;;;;;;53.63;35.83;;;;;;;5.90;70.70;99813.81;10550481;22;20381;-69
2020/12/13 18:45:51;;;;;;;58.47;36.88;;;;;;;6.24;69.94;99814.09;10557495;28;20509;-69
2020/12/13 18:50:52;;;;;;;58.10;35.28;;;;;;;6.09;70.09;99819.59;10561834;28;20048;-68
2020/12/13 18:55:54;;;;;;;59.00;36.38;;;;;;;6.09;70.06;99825.69;10550160;28;20432;-68
2020/12/13 19:00:56;;;;;;;64.43;36.95;;;;;;;6.43;68.96;99828.56;10550032;28;20462;-69
2020/12/13 19:05:59;;;;;;;57.97;35.35;;;;;;;6.54;68.54;99831.81;10549533;28;20075;-68
2020/12/13 19:11:05;;;;;;;51.97;35.20;;;;;;;6.30;69.29;99834.91;10542706;28;20047;-69
2020/12/13 19:16:09;;;;;;;62.13;36.90;;;;;;;6.44;68.84;99835.50;10558357;28;20040;-68
2020/12/13 19:21:12;;;;;;;59.08;35.80;;;;;;;6.33;69.19;99832.25;10529631;28;20158;-69
2020/12/13 19:26:13;;;;;;;62.28;37.47;;;;;;;6.03;70.14;99842.31;10527161;28;20051;-68
2020/12/13 19:31:15;;;;;;;63.10;38.22;;;;;;;5.98;70.50;99840.66;10528815;28;20485;-68
2020/12/13 19:36:18;;;;;;;63.20;37.22;;;;;;;6.05;70.43;99827.47;10545302;28;20058;-69
2020/12/13 19:41:20;;;;;;;63.70;37.45;;;;;;;6.09;70.26;99836.13;10526767;28;20036;-68
2020/12/13 19:46:24;;;;;;;65.38;38.30;;;;;;;6.18;70.15;99840.31;10545449;28;20389;-69
2020/12/13 19:51:35;;;;;;;60.42;36.72;;;;;;;6.28;69.98;99834.03;10526454;28;20044;-69
2020/12/13 19:56:38;;;;;;;63.90;38.72;;;;;;;6.27;70.09;99835.78;10544617;28;20396;-68
2020/12/13 20:01:44;;;;;;;67.35;37.70;;;;;;;6.07;70.31;99848.34;10545705;28;20439;-70
2020/12/13 20:06:49;;;;;;;61.15;37.22;;;;;;;5.86;70.75;99857.34;10544792;28;20048;-70
2020/12/13 20:11:50;;;;;;;62.00;37.65;;;;;;;5.74;71.24;99870.56;10545535;28;20055;-69
2020/12/13 20:22:37;;;;;;;64.70;38.22;;;;;;;5.96;70.91;99863.28;10545233;28;20071;-69
2020/12/13 21:20:18;;;;;;;67.88;38.45;;;;;;;5.73;71.70;99910.56;10462969;28;20131;-68
2020/12/13 21:51:24;;;;;;;72.20;41.15;;;;;;;5.90;72.06;99905.97;10531519;28;20089;-69
2020/12/13 21:56:52;;;;;;;69.72;40.45;;;;;;;5.90;71.98;99903.34;10530611;28;20126;-69
2020/12/13 22:17:17;;;;;;;69.35;40.25;;;;;;;5.82;71.90;99928.69;10547616;28;20115;-68
2020/12/13 22:27:47;;;;;;;63.80;37.33;;;;;;;5.67;72.12;99939.34;10547484;28;20047;-68
2020/12/13 22:32:50;;;;;;;64.55;39.10;;;;;;;5.54;72.64;99938.63;10547076;28;20051;-70
2020/12/13 22:37:52;;;;;;;69.15;37.45;;;;;;;5.45;72.40;99930.94;10547016;28;20044;-69
2020/12/13 22:42:54;;;;;;;71.78;39.38;;;;;;;5.69;71.82;99934.97;10527792;28;20040;-68
2020/12/13 22:47:55;;;;;;;60.85;36.92;;;;;;;5.31;72.38;99924.16;10545118;28;20040;-67
2020/12/13 22:52:57;;;;;;;71.22;40.75;;;;;;;5.22;73.33;99929.47;10510366;28;20042;-69
2020/12/13 22:57:58;;;;;;;62.83;38.67;;;;;;;4.91;72.70;99936.72;10544970;28;20044;-70
2020/12/13 23:02:59;;;;;;;67.70;39.20;;;;;;;4.85;73.52;99935.94;10545465;28;20036;-69
2020/12/13 23:08:00;;;;;;;64.70;37.47;;;;;;;4.84;73.44;99944.66;10545576;28;20508;-67
2020/12/13 23:13:03;;;;;;;72.97;40.15;;;;;;;4.88;73.62;99944.59;10545526;28;20047;-69
2020/12/13 23:18:04;;;;;;;66.10;37.95;;;;;;;4.87;73.72;99942.00;10545608;28;20067;-68
2020/12/13 23:23:07;;;;;;;65.97;38.38;;;;;;;4.90;73.83;99941.97;10544167;28;20075;-69
2020/12/13 23:28:09;;;;;;;60.53;35.85;;;;;;;4.87;73.52;99942.88;10543625;28;20036;-70
2020/12/13 23:33:12;;;;;;;59.53;35.15;;;;;;;4.90;73.26;99939.38;10543415;28;20416;-68
2020/12/13 23:38:13;;;;;;;65.93;36.35;;;;;;;4.84;73.78;99927.28;10542816;28;20048;-68
2020/12/13 23:43:14;;;;;;;57.55;36.55;;;;;;;4.98;73.60;99930.59;10542409;28;20040;-68
2020/12/13 23:48:16;;;;;;;61.90;35.47;;;;;;;4.95;73.55;99937.56;10542824;28;20097;-68
2020/12/13 23:53:17;;;;;;;57.05;34.60;;;;;;;4.96;73.88;99934.13;10542354;28;20122;-69
2020/12/13 23:58:18;;;;;;;50.00;33.35;;;;;;;4.95;73.70;99935.81;10543818;28;20048;-70
